Time;durP1;ratioP1;P1;durP2;ratioP2;P2;SDS_P1;SDS_P2;PMS_P1;PMS_P2;Temp;Humidity;BMP_temperature;BMP_pressure;BME280_temperature;BME280_humidity;BME280_pressure;Samples;Min_cycle;Max_cycle;Signal;HPM_P1;HPM_P2
2022/01/14 00:01:18;;;;;;;16.70;6.15;;;;;;;-149.78;100.00;50571.19;5073967;28;20089;-64
2022/01/14 00:03:44;;;;;;;9.07;4.90;;;;;;;-149.78;100.00;50555.53;5072084;28;22031;-64
2022/01/14 00:06:11;;;;;;;13.38;5.32;;;;;;;-149.78;100.00;50604.44;5073490;28;20046;-64
2022/01/14 00:08:37;;;;;;;16.63;5.50;;;;;;;-149.78;100.00;50577.06;5073338;28;20037;-64
2022/01/14 00:11:03;;;;;;;8.00;4.38;;;;;;;-149.78;100.00;50594.66;5073737;28;20032;-64
2022/01/14 00:13:52;;;;;;;13.73;4.90;;;;;;;-149.78;100.00;50592.72;5073669;28;20537;-68
2022/01/14 00:16:19;;;;;;;14.95;4.78;;;;;;;-149.78;100.00;50612.25;5055841;28;20066;-68
2022/01/14 00:18:45;;;;;;;12.10;5.22;;;;;;;-149.78;100.00;50584.88;5073652;28;20024;-68
2022/01/14 00:21:11;;;;;;;16.38;6.18;;;;;;;-149.78;100.00;50590.75;5073520;28;20487;-68
2022/01/14 00:23:40;;;;;;;19.77;6.20;;;;;;;-149.78;100.00;50557.50;5073484;28;20045;-68
2022/01/14 00:31:42;;;;;;;16.52;6.32;;;;;;;-149.78;100.00;50600.53;5073333;28;20044;-68
2022/01/14 00:34:10;;;;;;;10.32;4.72;;;;;;;-149.78;100.00;50631.81;5073392;28;20036;-68
2022/01/14 00:36:35;;;;;;;15.57;5.15;;;;;;;-149.78;100.00;50588.78;5072749;28;20039;-64
2022/01/14 00:39:01;;;;;;;13.95;5.10;;;;;;;-149.78;100.00;50606.41;5072297;28;20384;-64
2022/01/14 00:41:26;;;;;;;10.60;4.78;;;;;;;-149.78;100.00;50582.94;5073029;28;20061;-64
2022/01/14 00:43:59;;;;;;;13.95;5.22;;;;;;;-149.78;100.00;50580.97;5073258;28;20036;-64
2022/01/14 00:46:25;;;;;;;13.60;5.18;;;;;;;-149.78;100.00;50594.66;5073439;28;20041;-64
2022/01/14 00:48:50;;;;;;;14.75;5.25;;;;;;;-149.78;100.00;50602.47;5073194;28;20422;-64
2022/01/14 00:51:16;;;;;;;13.68;4.50;;;;;;;-149.78;100.00;50580.97;5073228;28;20028;-64
2022/01/14 00:53:42;;;;;;;15.07;5.20;;;;;;;-149.78;100.00;50561.41;5072961;28;20036;-68
2022/01/14 00:56:20;;;;;;;14.63;4.50;;;;;;;-149.78;100.00;50577.06;5055674;28;20037;-68
2022/01/14 01:01:30;;;;;;;9.30;4.63;;;;;;;-149.78;100.00;50647.47;5072983;28;20040;-68
2022/01/14 01:03:56;;;;;;;10.65;4.50;;;;;;;-149.78;100.00;50596.63;5053099;28;20075;-68
2022/01/14 01:06:22;;;;;;;13.75;4.78;;;;;;;-149.78;100.00;50612.25;5055232;28;20368;-68
2022/01/14 01:08:50;;;;;;;15.60;5.47;;;;;;;-149.78;100.00;50588.78;5072904;28;20089;-68
2022/01/14 01:11:23;;;;;;;12.27;4.60;;;;;;;-149.78;100.00;50590.75;5073011;28;20047;-68
2022/01/14 01:13:58;;;;;;;8.82;4.60;;;;;;;-149.78;100.00;50553.59;5073548;28;20043;-68
2022/01/14 01:16:24;;;;;;;13.30;4.97;;;;;;;-149.78;100.00;50608.34;5077068;28;20063;-68
2022/01/14 01:18:51;;;;;;;10.50;4.68;;;;;;;-149.78;100.00;50598.56;5077115;28;20032;-68
2022/01/14 01:21:16;;;;;;;10.75;5.10;;;;;;;-149.78;100.00;50573.16;5076834;28;20051;-68
2022/01/14 01:23:42;;;;;;;14.35;5.05;;;;;;;-149.78;100.00;50608.34;5076981;28;20097;-68
2022/01/14 01:26:51;;;;;;;16.52;5.85;;;;;;;-149.78;100.00;50596.63;5076793;28;20470;-68
2022/01/14 01:29:18;;;;;;;18.95;6.38;;;;;;;-149.78;100.00;50590.75;5065539;28;20047;-68
2022/01/14 01:31:45;;;;;;;14.18;6.03;;;;;;;-149.78;100.00;50616.19;5076447;28;20043;-68
2022/01/14 01:34:18;;;;;;;16.00;6.07;;;;;;;-149.78;100.00;50608.34;5076478;28;20032;-68
2022/01/14 01:36:47;;;;;;;15.35;5.63;;;;;;;-149.78;100.00;50561.41;5075617;28;20036;-68
2022/01/14 01:39:14;;;;;;;15.50;5.85;;;;;;;-149.78;100.00;50602.47;5075432;28;20036;-68
2022/01/14 01:41:49;;;;;;;20.88;7.13;;;;;;;-149.78;100.00;50586.84;5076162;28;20357;-68
2022/01/14 01:44:17;;;;;;;17.90;6.45;;;;;;;-149.78;100.00;50624.00;5076204;28;20039;-68
2022/01/14 01:46:46;;;;;;;15.25;6.25;;;;;;;-149.78;100.00;50635.72;5076450;28;20094;-68
2022/01/14 01:49:13;;;;;;;21.27;7.00;;;;;;;-149.78;100.00;50610.31;5076205;28;20037;-64
2022/01/14 01:51:41;;;;;;;15.45;5.82;;;;;;;-149.78;100.00;50588.78;5076242;28;20106;-64
2022/01/14 01:54:06;;;;;;;15.98;6.70;;;;;;;-149.78;100.00;50624.00;5076179;28;20028;-64
2022/01/14 01:56:32;;;;;;;16.63;6.65;;;;;;;-149.78;100.00;50620.09;5076442;28;20399;-64
2022/01/14 01:58:58;;;;;;;13.95;6.78;;;;;;;-149.78;100.00;50616.19;5076182;28;20443;-64
2022/01/14 02:01:25;;;;;;;21.40;6.93;;;;;;;-149.78;100.00;50639.66;5076293;28;20040;-64
2022/01/14 02:03:53;;;;;;;20.92;6.57;;;;;;;-149.78;100.00;50620.09;5074087;28;20039;-65
2022/01/14 02:06:22;;;;;;;20.92;7.97;;;;;;;-149.78;100.00;50627.91;5058087;28;20090;-65
2022/01/14 02:08:48;;;;;;;19.17;7.05;;;;;;;-149.78;100.00;50594.66;5068462;28;20464;-65
2022/01/14 02:11:15;;;;;;;24.52;7.00;;;;;;;-149.78;100.00;50600.53;5075500;28;20028;-64
2022/01/14 02:13:41;;;;;;;16.70;6.63;;;;;;;-149.78;100.00;50616.19;5057912;28;20103;-65
2022/01/14 02:16:30;;;;;;;19.35;6.38;;;;;;;-149.78;100.00;50622.03;5075623;28;20047;-65
2022/01/14 02:24:55;;;;;;;16.83;6.90;;;;;;;-149.78;100.00;50604.44;5075423;28;20060;-65
2022/01/14 02:27:19;;;;;;;18.60;6.68;;;;;;;-149.78;100.00;50612.25;5075114;28;20503;-65
2022/01/14 02:29:44;;;;;;;13.57;5.97;;;;;;;-149.78;100.00;50620.09;5074997;28;20049;-65
2022/01/14 02:32:10;;;;;;;20.85;6.80;;;;;;;-149.78;100.00;50606.41;5075217;28;20437;-65
2022/01/14 02:34:37;;;;;;;16.02;6.25;;;;;;;-149.78;100.00;50639.66;5074794;28;20489;-65
2022/01/14 02:37:03;;;;;;;16.02;5.93;;;;;;;-149.78;100.00;50608.34;5073579;28;20036;-64
2022/01/14 02:39:29;;;;;;;15.35;5.93;;;;;;;-149.78;100.00;50608.34;5073625;28;20529;-65
2022/01/14 02:41:55;;;;;;;14.70;6.63;;;;;;;-149.78;100.00;50618.13;5074733;28;20036;-64
2022/01/14 02:44:27;;;;;;;14.38;5.88;;;;;;;-149.78;100.00;50588.78;5056884;28;20491;-65
2022/01/14 02:46:57;;;;;;;12.40;5.68;;;;;;;-149.78;100.00;50616.19;5074917;28;20094;-65
2022/01/14 02:49:27;;;;;;;14.63;5.40;;;;;;;-149.78;100.00;50604.44;5074832;28;20085;-65
2022/01/14 02:51:53;;;;;;;18.40;5.60;;;;;;;-149.78;100.00;50606.41;5075002;28;20032;-65
2022/01/14 02:54:22;;;;;;;16.98;5.75;;;;;;;-149.78;100.00;50618.13;5074745;28;20024;-65
2022/01/14 02:56:52;;;;;;;16.88;5.35;;;;;;;-149.78;100.00;50635.72;5074921;28;20040;-65
2022/01/14 02:59:19;;;;;;;12.38;5.07;;;;;;;-149.78;100.00;50592.72;5056988;28;20494;-64
2022/01/14 03:01:46;;;;;;;20.30;6.43;;;;;;;-149.78;100.00;50604.44;5074905;28;20060;-65
2022/01/14 03:04:15;;;;;;;14.30;5.43;;;;;;;-149.78;100.00;50608.34;5072762;28;20036;-64
2022/01/14 03:06:42;;;;;;;19.75;5.95;;;;;;;-149.78;100.00;50635.72;5074030;28;20028;-65
2022/01/14 03:09:08;;;;;;;15.63;5.53;;;;;;;-149.78;100.00;50620.09;5070316;28;20029;-65
2022/01/14 03:11:47;;;;;;;14.48;5.18;;;;;;;-149.78;100.00;50620.09;5055854;28;20077;-64
2022/01/14 03:14:14;;;;;;;16.20;6.32;;;;;;;-149.78;100.00;50686.59;5073978;28;20566;-64
2022/01/14 03:16:42;;;;;;;14.65;5.57;;;;;;;-149.78;100.00;50635.72;5074494;28;20028;-64
2022/01/14 03:19:19;;;;;;;17.15;6.53;;;;;;;-149.78;100.00;50592.72;5056366;28;20032;-64
2022/01/14 03:21:44;;;;;;;17.33;6.15;;;;;;;-149.78;100.00;50612.25;5073588;28;20048;-64
2022/01/14 03:24:21;;;;;;;17.63;6.35;;;;;;;-149.78;100.00;50633.78;5074009;28;20032;-65
2022/01/14 03:26:49;;;;;;;14.30;6.60;;;;;;;-149.78;100.00;50602.47;5074760;28;20037;-64
2022/01/14 03:29:16;;;;;;;19.80;6.22;;;;;;;-149.78;100.00;50643.56;5074050;28;20048;-64
2022/01/14 03:31:43;;;;;;;17.02;6.25;;;;;;;-149.78;100.00;50639.66;5074605;28;20040;-64
2022/01/14 03:34:09;;;;;;;20.50;7.25;;;;;;;-149.78;100.00;50618.13;5074325;28;20131;-64
2022/01/14 03:36:35;;;;;;;21.83;7.90;;;;;;;-149.78;100.00;50635.72;5059683;28;20105;-64
2022/01/14 03:39:01;;;;;;;19.17;8.02;;;;;;;-149.78;100.00;50627.91;5048755;28;20159;-64
2022/01/14 03:41:27;;;;;;;23.70;8.55;;;;;;;-149.78;100.00;50600.53;5057150;28;20047;-64
2022/01/14 03:43:53;;;;;;;23.08;7.40;;;;;;;-149.78;100.00;50663.13;5069250;28;20515;-64
2022/01/14 03:46:19;;;;;;;24.63;8.25;;;;;;;-149.78;100.00;50577.06;5069298;28;20032;-64
2022/01/14 03:48:45;;;;;;;19.80;7.25;;;;;;;-149.78;100.00;50559.47;5069880;28;20036;-64
2022/01/14 03:51:12;;;;;;;23.45;7.80;;;;;;;-149.78;100.00;50616.19;5070604;28;20051;-64
2022/01/14 03:53:38;;;;;;;21.20;7.70;;;;;;;-149.78;100.00;50604.44;5035703;28;20087;-64
2022/01/14 03:56:04;;;;;;;19.02;8.30;;;;;;;-149.78;100.00;50596.63;5072570;28;20036;-64
2022/01/14 03:58:30;;;;;;;21.83;8.00;;;;;;;-149.78;100.00;50592.72;5073678;28;20044;-64
2022/01/14 04:00:55;;;;;;;23.02;8.00;;;;;;;-149.78;100.00;50624.00;5055886;28;20047;-64
2022/01/14 04:03:21;;;;;;;23.05;7.95;;;;;;;-149.78;100.00;50604.44;5055530;28;20114;-64
2022/01/14 04:05:47;;;;;;;16.05;7.82;;;;;;;-149.78;100.00;50635.72;5071740;28;20047;-64
2022/01/14 04:08:12;;;;;;;16.63;7.05;;;;;;;-149.78;100.00;50639.66;5055411;28;20098;-64
2022/01/14 04:10:39;;;;;;;20.55;7.57;;;;;;;-149.78;100.00;50631.81;5073674;28;20040;-64
2022/01/14 04:13:12;;;;;;;17.60;7.50;;;;;;;-149.78;100.00;50622.03;5073347;28;20557;-64
2022/01/14 04:15:45;;;;;;;21.65;8.90;;;;;;;-149.78;100.00;50606.41;5073370;28;20086;-64
2022/01/14 04:18:16;;;;;;;17.60;7.63;;;;;;;-149.78;100.00;50620.09;5073626;28;20364;-64
2022/01/14 04:20:47;;;;;;;18.77;8.13;;;;;;;-149.78;100.00;50624.00;5055722;28;20394;-64
2022/01/14 04:23:15;;;;;;;17.02;7.30;;;;;;;-149.78;100.00;50594.66;5073298;28;20044;-64
2022/01/14 04:25:41;;;;;;;20.25;7.97;;;;;;;-149.78;100.00;50604.44;5073065;28;20091;-64
2022/01/14 04:28:08;;;;;;;16.30;7.40;;;;;;;-149.78;100.00;50612.25;5072904;28;20468;-64
2022/01/14 04:30:34;;;;;;;20.95;8.30;;;;;;;-149.78;100.00;50602.47;5073313;28;20040;-64
2022/01/14 04:33:02;;;;;;;20.35;7.47;;;;;;;-149.78;100.00;50565.31;5073040;28;20355;-64
2022/01/14 04:35:28;;;;;;;19.05;7.93;;;;;;;-149.78;100.00;50616.19;5072552;28;20060;-64
2022/01/14 04:37:54;;;;;;;19.95;7.72;;;;;;;-149.78;100.00;50627.91;5054498;28;20052;-64
2022/01/14 04:40:21;;;;;;;19.52;7.25;;;;;;;-149.78;100.00;50620.09;5072192;28;20040;-64
2022/01/14 04:42:47;;;;;;;23.63;7.47;;;;;;;-149.78;100.00;50588.78;5072849;28;20036;-64
2022/01/14 04:45:27;;;;;;;16.40;7.13;;;;;;;-149.78;100.00;50620.09;5072939;28;20446;-64
2022/01/14 04:47:53;;;;;;;13.25;6.97;;;;;;;-149.78;100.00;50616.19;5072615;28;20090;-64
2022/01/14 04:50:21;;;;;;;23.50;7.97;;;;;;;-149.78;100.00;50577.06;5072039;28;20067;-64
2022/01/14 04:52:47;;;;;;;18.00;7.22;;;;;;;-149.78;100.00;50592.72;5073172;28;20044;-64
2022/01/14 04:55:16;;;;;;;22.52;8.25;;;;;;;-149.78;100.00;50596.63;5073059;28;20070;-64
2022/01/14 04:57:42;;;;;;;27.33;8.98;;;;;;;-149.78;100.00;50584.88;5073003;28;20036;-64
2022/01/14 05:00:14;;;;;;;20.60;7.75;;;;;;;-149.78;100.00;50604.44;5072937;28;20029;-64
2022/01/14 05:02:41;;;;;;;21.58;7.85;;;;;;;-149.78;100.00;50616.19;5073023;28;20032;-64
2022/01/14 05:05:08;;;;;;;19.00;7.38;;;;;;;-149.78;100.00;50573.16;5070823;28;20494;-64
2022/01/14 05:07:35;;;;;;;25.23;8.10;;;;;;;-149.78;100.00;50586.84;5072841;28;20103;-64
2022/01/14 05:12:30;;;;;;;22.63;8.18;;;;;;;-149.78;100.00;50604.44;5072821;28;20402;-64
2022/01/14 05:14:56;;;;;;;17.77;7.75;;;;;;;-149.78;100.00;50616.19;5073005;28;20391;-64
2022/01/14 05:17:22;;;;;;;20.85;8.50;;;;;;;-149.78;100.00;50606.41;5072927;28;20052;-64
2022/01/14 05:19:48;;;;;;;19.52;8.02;;;;;;;-149.78;100.00;50577.06;5072889;28;20353;-64
2022/01/14 05:22:14;;;;;;;25.15;7.85;;;;;;;-149.78;100.00;50592.72;5072722;28;20073;-64
2022/01/14 05:24:40;;;;;;;25.67;8.50;;;;;;;-149.78;100.00;50580.97;5072888;28;20051;-64
2022/01/14 05:27:06;;;;;;;25.35;9.23;;;;;;;-149.78;100.00;50616.19;5054710;28;20479;-64
2022/01/14 05:29:32;;;;;;;19.75;7.80;;;;;;;-149.78;100.00;50608.34;5072492;28;20070;-64
2022/01/14 05:32:05;;;;;;;15.43;6.93;;;;;;;-149.78;100.00;50594.66;5072881;28;20041;-64
2022/01/14 05:34:36;;;;;;;18.15;7.38;;;;;;;-149.78;100.00;50604.44;5072071;28;20035;-64
2022/01/14 05:37:04;;;;;;;21.38;7.72;;;;;;;-149.78;100.00;50635.72;5053742;28;20074;-64
2022/01/14 05:39:30;;;;;;;18.33;8.27;;;;;;;-149.78;100.00;50580.97;5053424;28;20036;-64
2022/01/14 05:41:57;;;;;;;24.02;8.75;;;;;;;-149.78;100.00;50608.34;5072068;28;20487;-64
2022/01/14 05:44:26;;;;;;;28.35;10.02;;;;;;;-149.78;100.00;50606.41;5072402;28;20120;-64
2022/01/14 05:46:53;;;;;;;19.50;7.57;;;;;;;-149.78;100.00;50579.00;5072492;28;20033;-64
2022/01/14 05:49:20;;;;;;;25.77;8.95;;;;;;;-149.78;100.00;50604.44;5071998;28;20029;-67
2022/01/14 05:51:46;;;;;;;24.83;9.30;;;;;;;-149.78;100.00;50596.63;5072740;28;20107;-67
2022/01/14 05:54:12;;;;;;;22.77;8.90;;;;;;;-149.78;100.00;50596.63;5072386;28;20036;-67
2022/01/14 05:56:38;;;;;;;24.92;8.93;;;;;;;-149.78;100.00;50627.91;5072655;28;20045;-69
2022/01/14 05:59:04;;;;;;;25.38;9.55;;;;;;;-149.78;100.00;50580.97;5053648;28;20399;-67
2022/01/14 06:01:33;;;;;;;34.20;10.48;;;;;;;-149.78;100.00;50639.66;5075771;28;20033;-67
2022/01/14 06:04:00;;;;;;;22.73;8.60;;;;;;;-149.78;100.00;50580.97;5074300;28;20040;-67
2022/01/14 06:06:26;;;;;;;23.35;8.07;;;;;;;-149.78;100.00;50647.47;5058460;28;20037;-64
2022/01/14 06:08:52;;;;;;;18.70;8.02;;;;;;;-149.78;100.00;50631.81;5076010;28;20052;-64
2022/01/14 06:11:17;;;;;;;25.02;9.10;;;;;;;-149.78;100.00;50606.41;5076114;28;20044;-64
2022/01/14 06:13:43;;;;;;;23.63;8.82;;;;;;;-149.78;100.00;50616.19;5075937;28;20037;-67
2022/01/14 06:16:09;;;;;;;22.25;9.05;;;;;;;-149.78;100.00;50596.63;5075946;28;20062;-67
2022/01/14 06:18:35;;;;;;;24.92;9.30;;;;;;;-149.78;100.00;50627.91;5075909;28;20093;-67
2022/01/14 06:21:00;;;;;;;28.20;9.73;;;;;;;-149.78;100.00;50600.53;5075795;28;20048;-67
2022/01/14 06:23:26;;;;;;;28.95;9.35;;;;;;;-149.78;100.00;50620.09;5075384;28;20035;-67
2022/01/14 06:25:52;;;;;;;29.77;9.30;;;;;;;-149.78;100.00;50604.44;5075801;28;20414;-64
2022/01/14 06:28:17;;;;;;;25.92;10.32;;;;;;;-149.78;100.00;50592.72;5075498;28;20059;-64
2022/01/14 06:30:43;;;;;;;31.80;11.07;;;;;;;-149.78;100.00;50602.47;5075432;28;20103;-64
2022/01/14 06:33:08;;;;;;;26.08;9.68;;;;;;;-149.78;100.00;50624.00;5041053;28;20123;-64
2022/01/14 06:35:35;;;;;;;30.75;11.40;;;;;;;-149.78;100.00;50631.81;5057601;28;20037;-65
2022/01/14 06:38:01;;;;;;;28.63;10.65;;;;;;;-149.78;100.00;50588.78;5056694;28;20040;-64
2022/01/14 06:40:28;;;;;;;27.23;11.20;;;;;;;-149.78;100.00;50631.81;5074628;28;20040;-66
2022/01/14 06:42:53;;;;;;;34.05;10.00;;;;;;;-149.78;100.00;50624.00;5075115;28;20025;-64
2022/01/14 06:45:20;;;;;;;25.90;9.32;;;;;;;-149.78;100.00;50588.78;5075319;28;20318;-64
2022/01/14 06:47:45;;;;;;;26.60;9.68;;;;;;;-149.78;100.00;50604.44;5075399;28;20068;-65
2022/01/14 06:50:11;;;;;;;28.38;10.52;;;;;;;-149.78;100.00;50620.09;5075073;28;20067;-64
2022/01/14 06:52:37;;;;;;;31.27;9.48;;;;;;;-149.78;100.00;50661.16;5075222;28;20078;-64
2022/01/14 06:55:04;;;;;;;27.88;10.18;;;;;;;-149.78;100.00;50645.50;5057124;28;20040;-64
2022/01/14 06:57:30;;;;;;;27.35;10.60;;;;;;;-149.78;100.00;50608.34;5075155;28;20066;-65
2022/01/14 06:59:55;;;;;;;30.30;10.50;;;;;;;-149.78;100.00;50596.63;5075131;28;20028;-64
2022/01/14 07:02:21;;;;;;;28.92;9.95;;;;;;;-149.78;100.00;50596.63;5075222;28;20371;-64
2022/01/14 07:04:46;;;;;;;32.72;10.45;;;;;;;-149.78;100.00;50608.34;5073152;28;20433;-64
2022/01/14 07:07:12;;;;;;;26.45;9.98;;;;;;;-149.78;100.00;50627.91;5066967;28;20077;-64
2022/01/14 07:09:55;;;;;;;28.63;9.77;;;;;;;-149.78;100.00;50631.81;5048052;28;20040;-64
2022/01/14 07:12:31;;;;;;;22.92;8.35;;;;;;;-149.78;100.00;50620.09;5062322;28;20041;-64
2022/01/14 07:14:58;;;;;;;23.45;8.98;;;;;;;-149.78;100.00;50624.00;5056272;28;20112;-65
2022/01/14 07:17:25;;;;;;;19.67;7.80;;;;;;;-149.78;100.00;50663.13;5064833;28;20029;-64
2022/01/14 07:19:53;;;;;;;22.90;8.73;;;;;;;-149.78;100.00;50612.25;5065427;28;20040;-64
2022/01/14 07:22:20;;;;;;;21.58;8.77;;;;;;;-149.78;100.00;50624.00;5067098;28;20480;-64
2022/01/14 07:24:46;;;;;;;21.55;8.18;;;;;;;-149.78;100.00;50600.53;5070895;28;20039;-64
2022/01/14 07:27:13;;;;;;;19.50;8.40;;;;;;;-149.78;100.00;50647.47;5070914;28;22322;-64
2022/01/14 07:29:40;;;;;;;23.55;9.48;;;;;;;-149.78;100.00;50612.25;5053875;28;20045;-64
2022/01/14 07:32:06;;;;;;;24.27;9.35;;;;;;;-149.78;100.00;50616.19;5036218;28;20036;-65
2022/01/14 07:34:31;;;;;;;22.02;9.10;;;;;;;-149.78;100.00;50663.13;5053470;28;20035;-66
2022/01/14 07:36:57;;;;;;;22.85;8.57;;;;;;;-149.78;100.00;50635.72;5053829;28;20032;-64
2022/01/14 07:39:24;;;;;;;24.38;8.07;;;;;;;-149.78;100.00;50624.00;5070519;28;20028;-67
2022/01/14 07:41:51;;;;;;;18.90;7.15;;;;;;;-149.78;100.00;50610.31;5068426;28;20052;-64
2022/01/14 07:44:17;;;;;;;17.58;7.07;;;;;;;-149.78;100.00;50647.47;5053457;28;20198;-62
2022/01/14 07:46:42;;;;;;;22.75;7.88;;;;;;;-149.78;100.00;50627.91;5068874;28;20066;-63
2022/01/14 07:49:09;;;;;;;22.00;7.97;;;;;;;-149.78;100.00;50620.09;5073292;28;20441;-63
2022/01/14 07:51:36;;;;;;;19.80;7.68;;;;;;;-149.78;100.00;50627.91;5072319;28;20040;-64
2022/01/14 07:54:06;;;;;;;22.10;8.80;;;;;;;-149.78;100.00;50620.09;5057406;28;20071;-64
2022/01/14 07:56:36;;;;;;;24.67;9.50;;;;;;;-149.78;100.00;50649.44;5053998;28;20095;-63
2022/01/14 07:59:04;;;;;;;20.35;8.88;;;;;;;-149.78;100.00;50659.19;5053933;28;20419;-63
2022/01/14 08:01:29;;;;;;;25.60;9.68;;;;;;;-149.78;100.00;50635.72;5064638;28;20029;-68
2022/01/14 08:03:55;;;;;;;23.38;9.68;;;;;;;-149.78;100.00;50651.38;5046410;28;20082;-67
2022/01/14 08:06:24;;;;;;;24.75;10.07;;;;;;;-149.78;100.00;50639.66;5072665;28;20345;-68
2022/01/14 08:08:49;;;;;;;22.50;9.27;;;;;;;-149.78;100.00;50627.91;5065006;28;20040;-68
2022/01/14 08:11:15;;;;;;;24.80;9.23;;;;;;;-149.78;100.00;50643.56;5063923;28;20029;-69
2022/01/14 08:13:40;;;;;;;22.70;9.10;;;;;;;-149.78;100.00;50635.72;5059759;28;20064;-68
2022/01/14 08:16:06;;;;;;;27.05;9.07;;;;;;;-149.78;100.00;50620.09;5065648;28;20032;-69
2022/01/14 08:18:32;;;;;;;32.20;12.27;;;;;;;-149.78;100.00;50635.72;5035906;28;20388;-68
2022/01/14 08:20:59;;;;;;;38.70;14.45;;;;;;;-149.78;100.00;50624.00;5043969;28;20040;-68
2022/01/14 08:23:43;;;;;;;30.10;10.68;;;;;;;-149.78;100.00;50624.00;5060744;28;20047;-68
2022/01/14 08:26:09;;;;;;;26.08;10.07;;;;;;;-149.78;100.00;50663.13;5069160;28;20040;-69
2022/01/14 08:28:34;;;;;;;26.42;9.90;;;;;;;-149.78;100.00;50637.69;5041041;28;20029;-68
2022/01/14 08:31:00;;;;;;;21.85;8.88;;;;;;;-149.78;100.00;50639.66;5062050;28;20430;-69
2022/01/14 08:33:26;;;;;;;25.42;10.38;;;;;;;-149.78;100.00;50655.28;5062760;28;20033;-69
2022/01/14 08:36:10;;;;;;;24.90;9.63;;;;;;;-149.78;100.00;50633.78;5069516;28;20091;-69
2022/01/14 08:38:37;;;;;;;29.83;10.38;;;;;;;-149.78;100.00;50651.38;5058638;28;20030;-69
2022/01/14 08:41:04;;;;;;;24.52;10.68;;;;;;;-149.78;100.00;50651.38;5072491;28;20048;-69
2022/01/14 08:43:30;;;;;;;30.98;10.85;;;;;;;-149.78;100.00;50625.94;5072911;28;20056;-69
2022/01/14 08:46:01;;;;;;;42.20;15.32;;;;;;;-149.78;100.00;50631.81;5072927;28;20071;-69
2022/01/14 08:48:27;;;;;;;63.33;22.15;;;;;;;-149.78;100.00;50612.25;5072612;28;20086;-69
2022/01/14 08:50:53;;;;;;;52.70;19.00;;;;;;;-149.78;100.00;50651.38;5072207;28;20360;-69
2022/01/14 08:53:19;;;;;;;43.83;16.15;;;;;;;-149.78;100.00;50655.28;5072845;28;20526;-69
2022/01/14 08:55:44;;;;;;;31.13;13.27;;;;;;;-149.78;100.00;50631.81;5073019;28;20049;-69
2022/01/14 08:58:10;;;;;;;31.88;12.80;;;;;;;-149.78;100.00;50661.16;5071731;28;20028;-69
2022/01/14 09:00:38;;;;;;;27.15;11.30;;;;;;;-149.78;100.00;50637.69;5062430;28;20056;-69
2022/01/14 09:03:04;;;;;;;31.92;10.52;;;;;;;-149.78;100.00;50627.91;5062454;28;20056;-68
2022/01/14 09:05:30;;;;;;;28.90;12.00;;;;;;;-149.78;100.00;50635.72;5060801;28;20025;-68
2022/01/14 09:07:56;;;;;;;27.60;11.10;;;;;;;-149.78;100.00;50612.25;5063776;28;20483;-68
2022/01/14 09:10:22;;;;;;;31.85;11.85;;;;;;;-149.78;100.00;50584.88;5061491;28;20047;-68
2022/01/14 09:12:48;;;;;;;31.67;11.93;;;;;;;-149.78;100.00;50627.91;5060465;28;20033;-68
2022/01/14 09:15:15;;;;;;;33.38;12.45;;;;;;;-149.78;100.00;50651.38;5063111;28;20025;-68
2022/01/14 09:17:40;;;;;;;36.45;12.77;;;;;;;-149.78;100.00;50651.38;5060029;28;20052;-68
2022/01/14 09:20:08;;;;;;;34.25;12.82;;;;;;;-149.78;100.00;50629.88;5067906;28;20032;-67
2022/01/14 09:22:35;;;;;;;35.85;12.75;;;;;;;-149.78;100.00;50604.44;5066113;28;20062;-70
2022/01/14 09:25:03;;;;;;;34.22;12.18;;;;;;;-149.78;100.00;50631.81;5063959;28;20456;-67
2022/01/14 09:27:29;;;;;;;38.70;13.00;;;;;;;-149.78;100.00;50620.09;5064173;28;20047;-68
2022/01/14 09:29:56;;;;;;;39.33;12.60;;;;;;;-149.78;100.00;50620.09;5070207;28;20048;-68
2022/01/14 09:32:22;;;;;;;33.90;12.73;;;;;;;-149.78;100.00;50639.66;5054741;28;20048;-68
2022/01/14 09:34:48;;;;;;;33.97;12.68;;;;;;;-149.78;100.00;50647.47;5072002;28;20064;-68
2022/01/14 09:37:14;;;;;;;39.03;13.98;;;;;;;-149.78;100.00;50641.59;5076009;28;20083;-68
2022/01/14 09:39:43;;;;;;;38.05;13.05;;;;;;;-149.78;100.00;50608.34;5061677;28;20056;-67
2022/01/14 09:42:13;;;;;;;35.30;13.35;;;;;;;-149.78;100.00;50608.34;5049837;28;20025;-67
2022/01/14 09:44:41;;;;;;;33.40;12.45;;;;;;;-149.78;100.00;50620.09;5076019;28;20028;-67
2022/01/14 09:47:07;;;;;;;33.22;13.13;;;;;;;-149.78;100.00;50620.09;5075411;28;20097;-68
2022/01/14 09:49:35;;;;;;;28.58;11.93;;;;;;;-149.78;100.00;50631.81;5075832;28;20037;-68
2022/01/14 09:52:00;;;;;;;32.65;10.68;;;;;;;-149.78;100.00;50596.63;5069770;28;20131;-67
2022/01/14 09:54:26;;;;;;;27.55;10.48;;;;;;;-149.78;100.00;50604.44;5074897;28;20036;-68
2022/01/14 09:56:52;;;;;;;26.15;9.77;;;;;;;-149.78;100.00;50624.00;5069410;28;20109;-68
2022/01/14 09:59:18;;;;;;;26.50;10.32;;;;;;;-149.78;100.00;50624.00;5075737;28;20475;-68
2022/01/14 10:01:47;;;;;;;26.40;9.48;;;;;;;-149.78;100.00;50659.19;5075764;28;20418;-68
2022/01/14 10:04:20;;;;;;;28.30;10.15;;;;;;;-149.78;100.00;50657.25;5062316;28;20036;-68
2022/01/14 10:06:47;;;;;;;26.15;9.50;;;;;;;-149.78;100.00;50608.34;5075463;28;20493;-67
2022/01/14 10:09:17;;;;;;;27.95;9.35;;;;;;;-149.78;100.00;50655.28;5066089;28;20356;-67
2022/01/14 10:11:58;;;;;;;24.05;8.57;;;;;;;-149.78;100.00;50594.66;5067985;28;20032;-67
2022/01/14 10:14:24;;;;;;;23.45;10.10;;;;;;;-149.78;100.00;50616.19;5067932;28;20380;-67
2022/01/14 10:16:58;;;;;;;29.13;11.32;;;;;;;-149.78;100.00;50631.81;5068610;28;20051;-67
2022/01/14 10:19:28;;;;;;;50.75;16.67;;;;;;;-149.78;100.00;50616.19;5070710;28;20456;-67
2022/01/14 10:21:55;;;;;;;33.72;12.85;;;;;;;-149.78;100.00;50600.53;5068161;28;20044;-67
2022/01/14 10:24:29;;;;;;;26.42;10.65;;;;;;;-149.78;100.00;50633.78;5061879;28;20491;-67
2022/01/14 10:26:58;;;;;;;26.58;9.88;;;;;;;-149.78;100.00;50606.41;5066979;28;20360;-67
2022/01/14 10:29:37;;;;;;;25.33;9.27;;;;;;;-149.78;100.00;50643.56;5058668;28;20074;-67
2022/01/14 10:32:05;;;;;;;24.10;9.50;;;;;;;-149.78;100.00;50580.97;5070221;28;20518;-67
2022/01/14 10:34:31;;;;;;;22.95;9.43;;;;;;;-149.78;100.00;50624.00;5057658;28;20498;-67
2022/01/14 10:37:10;;;;;;;22.70;10.55;;;;;;;-149.78;100.00;50588.78;5075100;28;20037;-67
2022/01/14 10:39:48;;;;;;;24.70;9.70;;;;;;;-149.78;100.00;50592.72;5075327;28;20032;-67
2022/01/14 10:42:28;;;;;;;22.90;9.40;;;;;;;-149.78;100.00;50592.72;5073119;28;20024;-67
2022/01/14 10:44:55;;;;;;;20.35;8.75;;;;;;;-149.78;100.00;50604.44;5069044;28;20033;-67
2022/01/14 10:47:24;;;;;;;26.33;9.07;;;;;;;-149.78;100.00;50590.75;5074050;28;20036;-67
2022/01/14 10:49:56;;;;;;;17.45;7.78;;;;;;;-149.78;100.00;50606.41;5065980;28;20475;-67
2022/01/14 10:52:26;;;;;;;18.63;7.97;;;;;;;-149.78;100.00;50592.72;5074793;28;20031;-67
2022/01/14 10:54:57;;;;;;;20.20;7.45;;;;;;;-149.78;100.00;50608.34;5056650;28;20037;-67
2022/01/14 10:57:29;;;;;;;21.88;7.90;;;;;;;-149.78;100.00;50608.34;5073642;28;20036;-67
2022/01/14 11:00:12;;;;;;;16.70;7.22;;;;;;;-149.78;100.00;50604.44;5067852;28;20390;-67
2022/01/14 11:02:42;;;;;;;22.50;9.15;;;;;;;-149.78;100.00;50624.00;5070070;28;20044;-67
2022/01/14 11:05:22;;;;;;;23.23;10.05;;;;;;;-149.78;100.00;50612.25;5062606;28;20517;-68
2022/01/14 11:07:49;;;;;;;23.48;9.85;;;;;;;-149.78;100.00;50600.53;5064555;28;20453;-68
2022/01/14 11:10:26;;;;;;;20.30;9.25;;;;;;;-149.78;100.00;50606.41;5068739;28;20040;-67
2022/01/14 11:12:53;;;;;;;20.98;8.40;;;;;;;-149.78;100.00;50577.06;5066913;28;20094;-67
2022/01/14 11:15:21;;;;;;;11.98;5.80;;;;;;;-149.78;100.00;50592.72;5063651;28;20086;-68
2022/01/14 11:17:52;;;;;;;17.52;5.63;;;;;;;-149.78;100.00;50594.66;5063032;28;20056;-68
2022/01/14 11:20:28;;;;;;;14.75;6.65;;;;;;;-149.78;100.00;50573.16;5066657;28;20040;-68